Latest Weather Observations for Cocos Island

IDW60801

Issued at 11:34 am WST Tuesday 27 June 2017 (issued every 30 minutes, with the page automatically refreshed every 10 minutes)

About weather observations | Map of weather stations | Latest weather observations for WA | Other Formats
Station Details ID: 200284 Name: COCOS ISLAND AIRPORT Lat: -12.19 Lon: 96.83 Height: 3.0 m
Data from the previous 72 hours. | See also: Recent months at Cocos Island
Date/Time
WST
Temp
°C
App
Temp
°C
Dew
Point
°C
Rel
Hum
%
Delta-T
°C
Wind Press
QNH
hPa
Press
MSL
hPa
Rain since
9am
mm
Dir  Spd
km/h
Gust
km/h
Spd
kts
Gust
kts
27/11:30am 27.0 24.4 22.2 75 3.2 ESE 39 48 21 26 1014.2 - 0.0
27/11:00am 26.8 23.7 22.0 75 3.2 SE 41 50 22 27 1014.2 1014.1 0.6
27/10:30am 26.8 24.2 22.2 76 3.1 SE 39 50 21 27 1013.9 - 0.6
27/10:00am 26.7 24.1 22.1 76 3.1 SE 39 48 21 26 1013.9 - 0.6
27/09:30am 26.5 24.0 21.7 75 3.2 SE 37 46 20 25 1013.7 - 0.6
27/09:00am 26.4 23.9 21.6 75 3.2 SE 37 50 20 27 1013.1 - 0.6
27/08:30am 26.3 23.7 22.1 77 2.8 SE 39 50 21 27 1012.7 - 0.6
27/08:00am 26.2 24.2 21.9 77 2.9 SE 35 48 19 26 1012.5 1012.4 0.6
27/07:30am 26.2 23.7 21.7 76 3.0 SE 37 46 20 25 1012.4 - 0.6
27/07:00am 26.3 23.8 21.6 75 3.1 SE 37 48 20 26 1012.3 - 0.6
27/06:30am 26.5 24.7 21.5 74 3.3 SE 33 43 18 23 1012.2 - 0.6
27/06:00am 26.4 25.0 21.9 76 3.0 SE 32 43 17 23 1012.1 - 0.6
27/05:30am 26.2 25.2 22.0 77 2.8 SE 30 43 16 23 1012.0 - 0.6
27/05:00am 25.8 24.4 22.2 80 2.4 SE 33 41 18 22 1012.3 1012.2 0.6
27/04:30am 26.0 24.0 21.8 77 2.8 SE 35 43 19 23 1012.5 - 0.6
27/04:00am 26.3 24.6 21.3 74 3.3 ESE 32 41 17 22 1012.7 - 0.6
27/03:30am 26.4 24.6 21.6 75 3.2 SE 33 43 18 23 1012.7 - 0.6
27/03:00am 26.4 25.1 21.4 74 3.3 SE 30 35 16 19 1012.9 - 0.6
27/02:30am 26.3 25.7 21.3 74 3.3 ESE 26 35 14 19 1013.2 - 0.6
27/02:00am 26.3 24.7 21.5 75 3.2 ESE 32 41 17 22 1013.6 1013.5 0.6
27/01:30am 26.4 25.2 21.6 75 3.2 ESE 30 39 16 21 1013.9 - 0.6
27/01:00am 26.3 25.1 22.6 80 2.5 SE 33 43 18 23 1014.1 - 0.6
27/12:49am 26.4 24.9 22.7 80 2.5 SE 35 43 19 23 1014.1 - 0.6
27/12:30am 26.1 24.6 22.8 82 2.2 SE 35 43 19 23 1014.3 - 0.6
27/12:25am 26.1 25.0 22.8 82 2.2 SE 33 43 18 23 1014.3 - 0.6
27/12:00am 25.9 24.8 22.8 83 2.1 SE 33 43 18 23 1014.2 - 0.6
 
Date/Time
WST
Temp
°C
App
Temp
°C
Dew
Point
°C
Rel
Hum
%
Delta-T
°C
Wind Press
QNH
hPa
Press
MSL
hPa
Rain since
9am
mm
Dir  Spd
km/h
Gust
km/h
Spd
kts
Gust
kts
26/11:30pm 25.3 25.9 22.8 86 1.7 E 24 39 13 21 1014.3 - 0.6
26/11:00pm 25.8 24.2 21.9 79 2.6 SE 33 43 18 23 1014.3 1014.2 0.4
26/10:30pm 26.4 25.4 22.7 80 2.5 SE 32 41 17 22 1014.2 - 0.4
26/10:00pm 26.3 25.3 22.7 80 2.4 SE 32 44 17 24 1014.1 - 0.4
26/09:30pm 26.3 25.3 22.6 80 2.5 ESE 32 43 17 23 1013.8 - 0.4
26/09:00pm 26.0 24.2 22.3 80 2.5 ESE 35 43 19 23 1013.5 - 0.4
26/08:30pm 26.7 24.9 22.2 76 3.0 SE 35 43 19 23 1013.1 - 0.4
26/08:00pm 26.6 25.1 22.0 76 3.1 ESE 33 43 18 23 1012.8 1012.7 0.4
26/07:30pm 26.6 25.1 22.1 76 3.0 ESE 33 44 18 24 1012.6 - 0.4
26/07:00pm 26.6 24.7 22.0 76 3.1 ESE 35 46 19 25 1012.5 - 0.4
26/06:30pm 26.5 24.7 22.2 77 2.9 SE 35 46 19 25 1012.1 - 0.4
26/06:00pm 26.7 24.5 22.1 76 3.1 SE 37 46 20 25 1012.0 - 0.4
26/05:30pm 26.7 24.7 21.9 75 3.2 SE 35 44 19 24 1011.8 - 0.4
26/05:00pm 26.9 24.5 21.8 73 3.4 SE 37 44 20 24 1011.7 1011.6 0.4
26/04:30pm 26.8 24.1 22.0 75 3.2 SE 39 48 21 26 1011.8 - 0.4
26/04:27pm 26.8 24.1 21.9 74 3.3 SE 39 48 21 26 1011.8 - 0.4
26/04:00pm 27.0 24.8 22.1 74 3.3 SE 37 44 20 24 1011.6 - 0.4
26/03:53pm 27.0 23.9 21.9 73 3.4 SE 41 50 22 27 1011.7 - 0.4
26/03:30pm 27.0 24.2 21.8 73 3.5 SE 39 48 21 26 1011.7 - 0.4
26/03:00pm 27.1 24.0 21.9 73 3.5 SE 41 50 22 27 1011.8 - 0.4
26/02:30pm 26.8 23.9 22.3 76 3.0 SE 41 50 22 27 1012.1 - 0.2
26/02:00pm 26.9 24.1 21.8 73 3.4 SE 39 50 21 27 1012.5 1012.4 0.2
26/01:30pm 27.0 24.2 21.8 73 3.5 SE 39 50 21 27 1013.0 - 0.2
26/01:00pm 25.7 24.6 22.4 82 2.2 ESE 32 46 17 25 1013.4 - 0.2
26/12:30pm 26.6 24.1 22.4 78 2.8 SE 39 48 21 26 1013.4 - 0.2
26/12:11pm 26.5 24.5 22.5 78 2.7 SE 37 56 20 30 1013.5 - 0.2
26/12:00pm 26.6 24.0 22.9 80 2.5 SE 41 54 22 29 1013.4 - 0.2
26/11:59am 26.6 23.5 22.6 78 2.7 SE 43 54 23 29 1013.4 - 0.2
26/11:40am 25.4 23.1 22.7 85 1.8 SE 39 52 21 28 1013.7 - 0.2
26/11:30am 26.6 24.2 21.8 75 3.2 SE 37 48 20 26 1013.7 - 0.0
26/11:00am 26.4 23.2 21.8 76 3.1 ESE 41 52 22 28 1013.7 1013.6 0.2
26/10:30am 26.1 23.4 22.7 81 2.3 SE 41 54 22 29 1013.7 - 0.2
26/10:00am 26.1 24.1 22.5 80 2.4 SE 37 46 20 25 1013.5 - 0.2
26/09:30am 26.0 22.8 21.8 77 2.8 SE 41 50 22 27 1013.2 - 0.2
26/09:00am 25.6 22.6 22.2 81 2.3 ESE 41 59 22 32 1013.0 - 0.2
26/08:59am 25.7 22.7 22.1 80 2.4 ESE 41 59 22 32 1013.0 - 0.2
26/08:44am 25.3 23.6 22.5 84 1.9 ESE 35 57 19 31 1012.8 - 0.2
26/08:41am 25.1 24.0 22.9 87 1.5 E 33 46 18 25 1012.7 - 0.2
26/08:38am 25.8 24.7 22.5 82 2.2 E 32 39 17 21 1012.7 - 0.0
26/08:30am 26.2 23.6 21.5 75 3.1 SE 37 48 20 26 1012.5 - 0.0
26/08:06am 25.9 23.3 21.5 76 2.9 SE 37 46 20 25 1012.1 - 0.0
26/08:00am 25.9 22.8 21.2 75 3.1 SE 39 46 21 25 1011.9 1011.8 0.0
26/07:47am 26.2 22.6 20.9 72 3.5 SE 41 52 22 28 1012.0 - 0.0
26/07:30am 26.2 23.4 21.1 73 3.4 SE 37 48 20 26 1012.0 - 0.0
26/07:00am 26.3 23.1 21.0 72 3.5 SE 39 50 21 27 1011.8 - 0.0
26/06:30am 26.3 22.9 21.3 74 3.3 SE 41 54 22 29 1011.7 - 0.0
26/06:00am 26.0 23.1 21.6 76 2.9 SE 39 54 21 29 1011.7 - 0.0
26/05:30am 26.2 23.4 21.7 76 3.0 SE 39 52 21 28 1011.5 - 0.0
26/05:00am 26.1 24.1 21.8 77 2.9 SE 35 48 19 26 1011.4 1011.3 0.0
26/04:30am 25.7 23.0 22.0 80 2.5 SE 39 50 21 27 1011.6 - 0.0
26/04:00am 26.0 23.2 21.8 77 2.8 SE 39 48 21 26 1011.8 - 0.0
26/03:30am 25.5 22.2 21.6 79 2.6 SE 41 57 22 31 1012.1 - 0.0
26/03:16am 25.4 23.5 22.0 81 2.3 SE 35 54 19 29 1012.0 - 0.0
26/03:00am 25.9 23.5 21.9 78 2.7 SE 37 52 20 28 1012.1 - 0.0
26/02:30am 25.6 23.4 22.2 81 2.3 SE 37 46 20 25 1012.5 - 0.0
26/02:09am 25.1 23.8 22.1 83 2.0 ESE 32 39 17 21 1012.7 - 0.0
26/02:00am 24.6 22.6 21.9 85 1.8 ESE 35 46 19 25 1012.8 1012.7 0.0
26/01:46am 24.6 23.4 22.7 89 1.3 ESE 33 46 18 25 1013.0 - 0.0
26/01:37am 25.3 24.1 22.3 83 2.0 E 32 46 17 25 1013.0 - 0.0
26/01:30am 26.2 23.8 21.9 77 2.9 SE 37 46 20 25 1013.0 - 0.0
26/01:16am 25.9 24.4 22.0 79 2.6 SE 33 46 18 25 1013.1 - 0.0
26/01:04am 24.9 23.4 22.7 87 1.5 SE 35 54 19 29 1013.2 - 0.0
26/01:00am 24.8 22.3 22.4 86 1.6 SE 39 54 21 29 1013.2 - 0.0
26/12:30am 26.3 23.9 21.8 76 3.0 SE 37 44 20 24 1013.2 - 0.0
26/12:00am 26.4 24.0 21.9 76 3.0 SE 37 44 20 24 1013.3 - 0.0
 
Date/Time
WST
Temp
°C
App
Temp
°C
Dew
Point
°C
Rel
Hum
%
Delta-T
°C
Wind Press
QNH
hPa
Press
MSL
hPa
Rain since
9am
mm
Dir  Spd
km/h
Gust
km/h
Spd
kts
Gust
kts
25/11:30pm 26.4 24.2 22.1 77 2.9 SE 37 50 20 27 1013.3 - 0.0
25/11:00pm 26.4 24.2 22.1 77 2.9 SE 37 48 20 26 1013.3 1013.2 0.0
25/10:30pm 26.4 24.2 22.2 78 2.8 SE 37 48 20 26 1013.0 - 0.0
25/10:00pm 26.6 23.7 21.6 74 3.3 SE 39 48 21 26 1012.8 - 0.0
25/09:30pm 26.7 23.8 21.6 73 3.4 SE 39 50 21 27 1012.5 - 0.0
25/09:00pm 26.7 23.8 20.9 70 3.8 SE 37 46 20 25 1012.2 - 0.0
25/08:30pm 26.4 23.9 21.6 75 3.2 SE 37 44 20 24 1011.8 - 0.0
25/08:00pm 26.5 24.6 22.0 76 3.0 SE 35 46 19 25 1011.5 1011.4 0.0
25/07:30pm 26.8 24.8 20.7 69 4.0 SE 32 41 17 22 1011.4 - 0.0
25/07:00pm 27.0 24.5 20.8 69 4.1 SE 35 43 19 23 1011.5 - 0.0
25/06:30pm 26.9 24.4 20.8 69 4.0 SE 35 43 19 23 1011.1 - 0.0
25/06:00pm 26.9 24.6 21.3 71 3.7 ESE 35 44 19 24 1010.8 - 0.0
25/05:30pm 27.1 24.4 21.2 70 3.9 SE 37 44 20 24 1010.6 - 0.0
25/05:00pm 27.1 24.6 21.6 72 3.7 SE 37 44 20 24 1010.4 1010.3 0.0
25/04:30pm 27.2 25.6 21.8 72 3.6 SE 33 46 18 25 1010.4 - 0.0
25/04:00pm 27.4 24.4 21.4 70 4.0 ESE 39 48 21 26 1010.4 - 0.0
25/03:44pm 27.6 25.0 21.5 69 4.1 ESE 37 44 20 24 1010.5 - 0.0
25/03:30pm 27.3 24.6 21.3 69 4.0 SE 37 48 20 26 1010.8 - 0.0
25/03:17pm 27.5 25.0 21.7 70 3.9 SE 37 46 20 25 1010.9 - 0.0
25/03:00pm 27.5 25.1 21.0 67 4.3 SE 35 44 19 24 1011.0 - 0.0
25/02:30pm 27.7 26.2 20.9 66 4.5 ESE 30 39 16 21 1011.3 - 0.0
25/02:00pm 27.4 25.6 21.1 68 4.2 ESE 32 46 17 25 1011.8 1011.7 0.0
25/01:30pm 27.5 26.0 21.0 67 4.3 ESE 30 39 16 21 1012.0 - 0.0
25/01:00pm 27.0 26.5 22.2 75 3.2 ESE 28 39 15 21 1012.3 - 0.0
25/12:30pm 27.3 26.5 20.9 68 4.2 ESE 26 39 14 21 1012.7 - 0.0
25/12:00pm 26.9 25.5 21.2 71 3.8 ESE 30 41 16 22 1012.7 - 0.0
25/11:30am 26.1 25.2 21.4 75 3.1 ESE 28 43 15 23 1012.8 - 0.0
25/11:00am 25.5 24.7 22.4 83 2.1 E 30 48 16 26 1012.9 1012.8 0.6
25/10:46am 25.0 24.0 22.6 86 1.6 E 32 46 17 25 1012.9 - 0.6
25/10:30am 26.3 24.3 20.8 71 3.6 ESE 32 46 17 25 1012.8 - 0.6
25/10:00am 26.0 23.9 21.0 74 3.3 ESE 33 44 18 24 1012.8 - 0.6
25/09:30am 25.5 22.7 21.1 76 2.9 ESE 37 46 20 25 1012.6 - 0.6
25/09:04am 25.9 24.4 21.7 77 2.8 ESE 32 43 17 23 1012.1 - 0.6
25/09:00am 25.6 24.2 22.0 80 2.4 ESE 32 39 17 21 1012.1 - 0.6
25/08:54am 25.1 23.2 22.0 83 2.1 SE 35 52 19 28 1012.0 - 0.6
25/08:30am 26.0 23.2 21.0 74 3.3 SE 37 50 20 27 1011.7 - 0.6
25/08:00am 26.0 22.7 20.0 69 3.9 ESE 37 50 20 27 1011.6 1011.5 0.6
25/07:30am 25.7 23.1 20.7 74 3.3 ESE 35 44 19 24 1011.5 - 0.6
25/07:23am 25.7 23.3 21.0 75 3.1 ESE 35 48 19 26 1011.3 - 0.6
25/07:04am 25.9 22.9 20.7 73 3.4 ESE 37 56 20 30 1011.0 - 0.6
25/07:00am 25.9 22.7 21.1 75 3.2 SE 39 56 21 30 1011.0 - 0.6
25/06:30am 25.7 22.9 21.0 75 3.1 ESE 37 50 20 27 1010.7 - 0.6
25/06:00am 25.1 23.7 22.0 83 2.1 SE 32 41 17 22 1010.9 - 0.6
25/05:36am 25.4 23.1 21.2 77 2.8 ESE 35 46 19 25 1010.6 - 0.6
25/05:30am 25.0 22.8 21.5 81 2.3 ESE 35 48 19 26 1010.6 - 0.4
25/05:20am 24.7 23.8 22.2 86 1.7 ESE 30 46 16 25 1010.9 - 0.4
25/05:00am 25.3 23.1 21.4 79 2.6 ESE 35 46 19 25 1010.9 1010.8 0.4
25/04:30am 25.9 23.1 21.1 75 3.2 ESE 37 54 20 29 1011.1 - 0.4
25/04:22am 25.9 23.5 20.4 71 3.6 ESE 33 54 18 29 1011.1 - 0.4
25/04:00am 25.8 23.2 20.6 73 3.4 ESE 35 46 19 25 1011.2 - 0.4
25/03:30am 25.6 22.2 20.6 74 3.3 SE 39 50 21 27 1011.5 - 0.4
25/03:00am 25.6 21.2 20.4 73 3.4 ESE 44 54 24 29 1011.7 - 0.4
25/02:30am 25.6 22.1 20.4 73 3.4 ESE 39 50 21 27 1012.0 - 0.4
25/02:00am 25.3 22.1 21.8 81 2.3 SE 41 56 22 30 1012.4 1012.3 0.4
25/01:48am 25.1 21.9 21.8 82 2.2 SE 41 50 22 27 1012.5 - 0.4
25/01:30am 24.0 21.6 21.9 88 1.4 ESE 37 57 20 31 1012.8 - 0.4
25/01:28am 24.1 21.8 22.0 88 1.4 ESE 37 57 20 31 1012.9 - 0.4
25/01:25am 24.0 21.6 21.9 88 1.4 E 37 50 20 27 1012.9 - 0.2
25/01:23am 24.6 21.9 21.9 85 1.8 E 39 50 21 27 1012.9 - 0.2
25/01:02am 25.0 22.0 22.2 84 1.9 SE 41 50 22 27 1013.0 - 0.2
25/01:00am 24.9 21.9 22.1 84 1.9 SE 41 50 22 27 1013.0 - 0.2
25/12:41am 24.7 22.5 22.2 86 1.7 ESE 37 50 20 27 1013.3 - 0.0
25/12:30am 25.3 22.0 21.5 79 2.5 SE 41 54 22 29 1013.3 - 0.0
25/12:05am 25.6 21.6 21.2 76 2.9 SE 44 63 24 34 1013.4 - 0.0
25/12:00am 25.7 22.5 21.0 75 3.1 SE 39 54 21 29 1013.3 - 0.0
 
Date/Time
WST
Temp
°C
App
Temp
°C
Dew
Point
°C
Rel
Hum
%
Delta-T
°C
Wind Press
QNH
hPa
Press
MSL
hPa
Rain since
9am
mm
Dir  Spd
km/h
Gust
km/h
Spd
kts
Gust
kts
24/11:46pm 25.1 21.4 21.6 81 2.3 SE 43 50 23 27 1013.3 - 0.0
24/11:30pm 24.5 21.0 22.3 87 1.5 ESE 44 65 24 35 1013.4 - 0.0
24/11:25pm 26.0 21.8 21.0 74 3.3 SE 44 65 24 35 1013.3 - 0.0
24/11:06pm 25.6 21.9 21.5 78 2.7 SE 43 54 23 29 1013.3 - 0.0
24/11:00pm 25.9 21.9 21.0 74 3.2 SE 43 57 23 31 1013.2 1013.1 0.0
24/10:47pm 25.9 21.3 20.9 74 3.3 SE 46 59 25 32 1013.0 - 0.0
24/10:32pm 25.1 21.4 21.6 81 2.3 SE 43 61 23 33 1012.9 - 0.0
24/10:30pm 25.0 21.3 21.8 82 2.1 SE 44 61 24 33 1012.9 - 0.0
24/10:00pm 26.0 21.8 21.0 74 3.3 SE 44 56 24 30 1012.7 - 0.0
24/09:30pm 26.0 21.7 20.7 72 3.5 SE 44 56 24 30 1012.4 - 0.0
24/09:00pm 26.0 22.1 21.2 75 3.2 SE 43 52 23 28 1012.0 - 0.0
24/08:45pm 26.0 21.7 20.8 73 3.4 SE 44 63 24 34 1011.7 - 0.0
24/08:30pm 25.9 22.9 21.4 76 3.0 SE 39 56 21 30 1011.7 - 0.0
24/08:00pm 25.8 21.7 21.1 75 3.1 SE 44 57 24 31 1011.3 1011.2 0.0
24/07:30pm 25.7 22.3 21.3 76 2.9 SE 41 54 22 29 1011.1 - 0.0
24/07:00pm 26.4 22.2 20.6 70 3.8 SE 43 54 23 29 1010.7 - 0.0
24/06:30pm 26.3 23.0 21.6 75 3.1 SE 41 52 22 28 1010.3 - 0.0
24/06:00pm 26.4 22.6 20.6 70 3.8 SE 41 59 22 32 1010.4 - 0.0
24/05:30pm 26.2 21.8 20.4 70 3.8 ESE 44 57 24 31 1010.5 - 0.0
24/05:00pm 26.4 23.2 21.1 72 3.5 ESE 39 52 21 28 1010.5 1010.4 0.0
24/04:30pm 26.4 22.2 20.6 70 3.8 SE 43 54 23 29 1010.4 - 0.0
24/04:00pm 26.2 22.2 20.9 72 3.5 SE 43 54 23 29 1010.6 - 0.0
24/03:30pm 26.3 22.1 21.0 72 3.5 SE 44 54 24 29 1010.8 - 0.0
24/03:00pm 26.3 22.7 21.0 72 3.5 ESE 41 52 22 28 1010.9 - 0.0
24/02:50pm 26.3 22.7 21.0 72 3.5 SE 41 56 22 30 1011.0 - 0.0
24/02:30pm 26.3 22.2 20.8 71 3.6 ESE 43 52 23 28 1011.2 - 0.0
24/02:22pm 26.5 22.6 21.1 72 3.6 ESE 43 54 23 29 1011.2 - 0.0
24/02:00pm 26.3 21.9 21.2 73 3.4 SE 46 57 25 31 1011.3 1011.2 0.0
24/01:30pm 26.9 22.9 21.3 71 3.7 SE 44 57 24 31 1011.4 - 0.0
24/01:18pm 25.8 21.9 21.4 76 2.9 ESE 44 63 24 34 1011.7 - 0.0

Other Formats:

Comma delimited format used in spreadsheet applications
http://www.bom.gov.au/fwo/IDW60801/IDW60801.96996.axf

JavaScript Object Notation format (JSON) in row-major order
http://www.bom.gov.au/fwo/IDW60801/IDW60801.96996.json